sensor_id;sensor_type;location;lat;lon;timestamp;pressure;altitude;pressure_sealevel;temperature;humidity
65872;BME280;52653;50.080;21.992;2023-02-13T00:00:21;101061.23;;;-0.75;86.89
65872;BME280;52653;50.080;21.992;2023-02-13T00:03:24;101062.24;;;-0.60;86.91
65872;BME280;52653;50.080;21.992;2023-02-13T00:06:15;101056.30;;;-0.45;86.73
65872;BME280;52653;50.080;21.992;2023-02-13T00:09:08;101061.73;;;-0.31;86.53
65872;BME280;52653;50.080;21.992;2023-02-13T00:12:01;101058.30;;;-0.15;86.43
65872;BME280;52653;50.080;21.992;2023-02-13T00:14:55;101062.10;;;0.01;86.50
65872;BME280;52653;50.080;21.992;2023-02-13T00:17:49;101065.71;;;0.15;86.09
65872;BME280;52653;50.080;21.992;2023-02-13T00:20:44;101067.52;;;0.27;86.27
65872;BME280;52653;50.080;21.992;2023-02-13T00:23:38;101065.95;;;0.35;86.07
65872;BME280;52653;50.080;21.992;2023-02-13T00:26:31;101062.41;;;0.38;85.82
65872;BME280;52653;50.080;21.992;2023-02-13T00:29:25;101063.19;;;0.43;85.65
65872;BME280;52653;50.080;21.992;2023-02-13T00:32:18;101058.70;;;0.45;85.36
65872;BME280;52653;50.080;21.992;2023-02-13T00:35:11;101046.70;;;0.52;85.38
65872;BME280;52653;50.080;21.992;2023-02-13T00:38:04;101041.66;;;0.60;85.33
65872;BME280;52653;50.080;21.992;2023-02-13T00:40:57;101036.79;;;0.68;85.35
65872;BME280;52653;50.080;21.992;2023-02-13T00:43:50;101032.83;;;0.77;85.28
65872;BME280;52653;50.080;21.992;2023-02-13T00:46:35;101036.89;;;0.84;85.11
65872;BME280;52653;50.080;21.992;2023-02-13T00:49:27;101037.16;;;0.91;85.03
65872;BME280;52653;50.080;21.992;2023-02-13T00:52:20;101029.15;;;0.96;84.53
65872;BME280;52653;50.080;21.992;2023-02-13T00:55:13;101024.86;;;0.99;84.07
65872;BME280;52653;50.080;21.992;2023-02-13T00:58:06;101020.20;;;1.02;84.16
65872;BME280;52653;50.080;21.992;2023-02-13T01:00:59;101015.30;;;1.07;84.04
65872;BME280;52653;50.080;21.992;2023-02-13T01:03:52;101012.15;;;1.12;83.87
65872;BME280;52653;50.080;21.992;2023-02-13T01:06:45;101011.77;;;1.14;83.94
65872;BME280;52653;50.080;21.992;2023-02-13T01:09:39;101010.55;;;1.14;83.54
65872;BME280;52653;50.080;21.992;2023-02-13T01:12:24;101001.98;;;1.10;83.63
65872;BME280;52653;50.080;21.992;2023-02-13T01:15:18;100998.12;;;1.06;83.55
65872;BME280;52653;50.080;21.992;2023-02-13T01:18:13;100994.05;;;1.04;83.71
65872;BME280;52653;50.080;21.992;2023-02-13T01:21:28;100993.89;;;1.04;83.69
65872;BME280;52653;50.080;21.992;2023-02-13T01:24:21;100992.36;;;1.05;83.70
65872;BME280;52653;50.080;21.992;2023-02-13T01:27:07;100989.36;;;1.04;83.60
65872;BME280;52653;50.080;21.992;2023-02-13T01:29:58;100984.11;;;1.02;83.57
65872;BME280;52653;50.080;21.992;2023-02-13T01:32:51;100979.38;;;1.01;83.54
65872;BME280;52653;50.080;21.992;2023-02-13T01:35:44;100981.91;;;1.00;83.64
65872;BME280;52653;50.080;21.992;2023-02-13T01:38:37;100976.01;;;1.00;83.64
65872;BME280;52653;50.080;21.992;2023-02-13T01:41:30;100967.69;;;1.02;83.71
65872;BME280;52653;50.080;21.992;2023-02-13T01:44:51;100957.78;;;1.04;83.60
65872;BME280;52653;50.080;21.992;2023-02-13T01:47:40;100960.58;;;1.07;83.83
65872;BME280;52653;50.080;21.992;2023-02-13T01:50:38;100956.98;;;1.08;83.42
65872;BME280;52653;50.080;21.992;2023-02-13T01:53:37;100958.69;;;1.11;83.65
65872;BME280;52653;50.080;21.992;2023-02-13T01:56:34;100953.90;;;1.14;83.70
65872;BME280;52653;50.080;21.992;2023-02-13T01:59:30;100953.73;;;1.14;83.50
65872;BME280;52653;50.080;21.992;2023-02-13T02:02:25;100951.13;;;1.14;83.71
65872;BME280;52653;50.080;21.992;2023-02-13T02:05:21;100946.04;;;1.13;83.63
65872;BME280;52653;50.080;21.992;2023-02-13T02:08:16;100942.36;;;1.09;83.40
65872;BME280;52653;50.080;21.992;2023-02-13T02:11:14;100940.86;;;1.07;83.45
65872;BME280;52653;50.080;21.992;2023-02-13T02:14:09;100934.53;;;1.08;83.80
65872;BME280;52653;50.080;21.992;2023-02-13T02:16:54;100925.11;;;1.10;84.03
65872;BME280;52653;50.080;21.992;2023-02-13T02:19:55;100925.27;;;1.15;84.46
65872;BME280;52653;50.080;21.992;2023-02-13T02:23:27;100923.43;;;1.20;84.63
65872;BME280;52653;50.080;21.992;2023-02-13T02:30:37;100931.67;;;1.28;84.97
65872;BME280;52653;50.080;21.992;2023-02-13T02:33:41;100929.30;;;1.32;85.06
65872;BME280;52653;50.080;21.992;2023-02-13T02:36:48;100928.05;;;1.34;85.03
65872;BME280;52653;50.080;21.992;2023-02-13T02:39:45;100925.65;;;1.38;85.25
65872;BME280;52653;50.080;21.992;2023-02-13T02:42:52;100930.45;;;1.40;85.28
65872;BME280;52653;50.080;21.992;2023-02-13T02:45:53;100934.88;;;1.41;85.33
65872;BME280;52653;50.080;21.992;2023-02-13T02:48:54;100932.94;;;1.44;85.39
65872;BME280;52653;50.080;21.992;2023-02-13T02:52:07;100926.80;;;1.45;85.34
65872;BME280;52653;50.080;21.992;2023-02-13T02:55:12;100925.52;;;1.50;85.75
65872;BME280;52653;50.080;21.992;2023-02-13T02:58:15;100927.29;;;1.54;85.66
65872;BME280;52653;50.080;21.992;2023-02-13T03:01:29;100929.27;;;1.59;85.56
65872;BME280;52653;50.080;21.992;2023-02-13T03:04:43;100929.56;;;1.61;85.55
65872;BME280;52653;50.080;21.992;2023-02-13T03:07:54;100934.29;;;1.62;85.68
65872;BME280;52653;50.080;21.992;2023-02-13T03:10:47;100937.91;;;1.65;86.15
65872;BME280;52653;50.080;21.992;2023-02-13T03:14:10;100936.88;;;1.74;86.50
65872;BME280;52653;50.080;21.992;2023-02-13T03:17:07;100938.62;;;1.84;86.45
65872;BME280;52653;50.080;21.992;2023-02-13T03:20:27;100938.95;;;1.93;86.39
65872;BME280;52653;50.080;21.992;2023-02-13T03:23:49;100934.96;;;2.02;86.15
65872;BME280;52653;50.080;21.992;2023-02-13T03:26:49;100934.45;;;2.13;86.19
65872;BME280;52653;50.080;21.992;2023-02-13T03:30:07;100927.70;;;2.22;85.78
65872;BME280;52653;50.080;21.992;2023-02-13T03:33:36;100928.58;;;2.28;85.55
65872;BME280;52653;50.080;21.992;2023-02-13T03:36:45;100928.30;;;2.36;85.39
65872;BME280;52653;50.080;21.992;2023-02-13T03:40:04;100932.64;;;2.46;85.07
65872;BME280;52653;50.080;21.992;2023-02-13T03:43:04;100934.42;;;2.51;84.76
65872;BME280;52653;50.080;21.992;2023-02-13T03:46:00;100930.32;;;2.55;84.76
65872;BME280;52653;50.080;21.992;2023-02-13T03:48:54;100924.84;;;2.56;84.61
65872;BME280;52653;50.080;21.992;2023-02-13T03:52:08;100916.98;;;2.55;84.70
65872;BME280;52653;50.080;21.992;2023-02-13T03:55:06;100921.83;;;2.52;84.72
65872;BME280;52653;50.080;21.992;2023-02-13T03:58:20;100923.09;;;2.49;84.85
65872;BME280;52653;50.080;21.992;2023-02-13T04:01:34;100916.21;;;2.51;84.86
65872;BME280;52653;50.080;21.992;2023-02-13T04:04:34;100909.93;;;2.53;84.80
65872;BME280;52653;50.080;21.992;2023-02-13T04:07:30;100910.73;;;2.58;84.79
65872;BME280;52653;50.080;21.992;2023-02-13T04:10:26;100902.47;;;2.63;84.67
65872;BME280;52653;50.080;21.992;2023-02-13T04:13:28;100902.09;;;2.68;84.57
65872;BME280;52653;50.080;21.992;2023-02-13T04:16:28;100905.86;;;2.75;84.36
65872;BME280;52653;50.080;21.992;2023-02-13T04:19:24;100906.05;;;2.78;84.29
65872;BME280;52653;50.080;21.992;2023-02-13T04:22:19;100908.25;;;2.80;84.22
65872;BME280;52653;50.080;21.992;2023-02-13T04:25:13;100906.20;;;2.81;84.10
65872;BME280;52653;50.080;21.992;2023-02-13T04:28:08;100908.99;;;2.78;84.13
65872;BME280;52653;50.080;21.992;2023-02-13T04:31:01;100914.40;;;2.76;84.18
65872;BME280;52653;50.080;21.992;2023-02-13T04:33:56;100916.11;;;2.75;84.37
65872;BME280;52653;50.080;21.992;2023-02-13T04:36:50;100912.95;;;2.78;84.36
65872;BME280;52653;50.080;21.992;2023-02-13T04:39:43;100911.81;;;2.79;84.05
65872;BME280;52653;50.080;21.992;2023-02-13T04:42:36;100903.80;;;2.82;84.14
65872;BME280;52653;50.080;21.992;2023-02-13T04:45:29;100905.42;;;2.86;84.04
65872;BME280;52653;50.080;21.992;2023-02-13T04:48:22;100902.39;;;2.88;83.95
65872;BME280;52653;50.080;21.992;2023-02-13T04:51:15;100902.81;;;2.86;83.98
65872;BME280;52653;50.080;21.992;2023-02-13T04:54:09;100909.33;;;2.81;84.10
65872;BME280;52653;50.080;21.992;2023-02-13T04:57:02;100912.20;;;2.77;84.37
65872;BME280;52653;50.080;21.992;2023-02-13T04:59:55;100911.61;;;2.72;84.87
65872;BME280;52653;50.080;21.992;2023-02-13T05:02:48;100912.05;;;2.67;85.60
65872;BME280;52653;50.080;21.992;2023-02-13T05:05:41;100910.40;;;2.65;86.04
65872;BME280;52653;50.080;21.992;2023-02-13T05:08:35;100909.64;;;2.64;86.54
65872;BME280;52653;50.080;21.992;2023-02-13T05:11:29;100907.74;;;2.60;87.31
65872;BME280;52653;50.080;21.992;2023-02-13T05:14:15;100904.33;;;2.58;87.61
65872;BME280;52653;50.080;21.992;2023-02-13T05:17:08;100905.33;;;2.57;87.84
65872;BME280;52653;50.080;21.992;2023-02-13T05:20:01;100906.32;;;2.56;88.32
65872;BME280;52653;50.080;21.992;2023-02-13T05:22:54;100909.45;;;2.56;88.72
65872;BME280;52653;50.080;21.992;2023-02-13T05:26:05;100909.58;;;2.56;89.27
65872;BME280;52653;50.080;21.992;2023-02-13T05:28:58;100912.20;;;2.53;89.41
65872;BME280;52653;50.080;21.992;2023-02-13T05:32:08;100914.38;;;2.52;89.79
65872;BME280;52653;50.080;21.992;2023-02-13T05:35:00;100913.89;;;2.49;90.49
65872;BME280;52653;50.080;21.992;2023-02-13T05:37:54;100919.30;;;2.46;90.88
65872;BME280;52653;50.080;21.992;2023-02-13T05:40:40;100922.17;;;2.45;91.35
65872;BME280;52653;50.080;21.992;2023-02-13T05:43:33;100918.80;;;2.43;91.46
65872;BME280;52653;50.080;21.992;2023-02-13T05:46:28;100917.84;;;2.39;92.07
65872;BME280;52653;50.080;21.992;2023-02-13T05:49:21;100916.36;;;2.36;91.99
65872;BME280;52653;50.080;21.992;2023-02-13T05:52:14;100923.63;;;2.36;92.27
65872;BME280;52653;50.080;21.992;2023-02-13T05:55:08;100917.88;;;2.36;92.48
65872;BME280;52653;50.080;21.992;2023-02-13T05:58:01;100916.53;;;2.36;92.87
65872;BME280;52653;50.080;21.992;2023-02-13T06:00:56;100910.71;;;2.38;92.95
65872;BME280;52653;50.080;21.992;2023-02-13T06:03:43;100912.50;;;2.39;93.02
65872;BME280;52653;50.080;21.992;2023-02-13T06:06:29;100909.82;;;2.41;93.01
65872;BME280;52653;50.080;21.992;2023-02-13T06:09:22;100910.09;;;2.43;93.05
65872;BME280;52653;50.080;21.992;2023-02-13T06:12:15;100915.79;;;2.45;93.07
65872;BME280;52653;50.080;21.992;2023-02-13T06:15:09;100917.63;;;2.48;92.81
65872;BME280;52653;50.080;21.992;2023-02-13T06:18:02;100915.95;;;2.52;92.84
65872;BME280;52653;50.080;21.992;2023-02-13T06:20:56;100916.90;;;2.54;92.93
65872;BME280;52653;50.080;21.992;2023-02-13T06:23:42;100913.64;;;2.54;93.18
65872;BME280;52653;50.080;21.992;2023-02-13T06:26:35;100925.24;;;2.54;93.39
65872;BME280;52653;50.080;21.992;2023-02-13T06:29:28;100927.63;;;2.53;93.75
65872;BME280;52653;50.080;21.992;2023-02-13T06:32:21;100926.23;;;2.56;93.60
65872;BME280;52653;50.080;21.992;2023-02-13T06:35:14;100928.05;;;2.58;93.71
65872;BME280;52653;50.080;21.992;2023-02-13T06:38:07;100931.70;;;2.62;93.67
65872;BME280;52653;50.080;21.992;2023-02-13T06:41:01;100936.73;;;2.65;93.59
65872;BME280;52653;50.080;21.992;2023-02-13T06:43:54;100940.33;;;2.67;93.67
65872;BME280;52653;50.080;21.992;2023-02-13T06:46:48;100937.08;;;2.68;93.64
65872;BME280;52653;50.080;21.992;2023-02-13T06:49:41;100937.91;;;2.71;93.73
65872;BME280;52653;50.080;21.992;2023-02-13T06:52:36;100935.74;;;2.73;93.73
65872;BME280;52653;50.080;21.992;2023-02-13T06:55:29;100928.06;;;2.75;93.88
65872;BME280;52653;50.080;21.992;2023-02-13T06:58:23;100926.16;;;2.79;93.86
65872;BME280;52653;50.080;21.992;2023-02-13T07:01:16;100920.70;;;2.83;93.75
65872;BME280;52653;50.080;21.992;2023-02-13T07:04:09;100917.97;;;2.88;93.50
65872;BME280;52653;50.080;21.992;2023-02-13T07:07:02;100915.59;;;2.92;93.33
65872;BME280;52653;50.080;21.992;2023-02-13T07:09:55;100915.46;;;2.97;93.13
65872;BME280;52653;50.080;21.992;2023-02-13T07:12:48;100917.08;;;3.02;92.99
65872;BME280;52653;50.080;21.992;2023-02-13T07:15:55;100916.46;;;3.06;92.94
65872;BME280;52653;50.080;21.992;2023-02-13T07:18:47;100918.36;;;3.09;92.62
65872;BME280;52653;50.080;21.992;2023-02-13T07:21:41;100925.67;;;3.13;92.53
65872;BME280;52653;50.080;21.992;2023-02-13T07:24:34;100928.44;;;3.17;92.49
65872;BME280;52653;50.080;21.992;2023-02-13T07:27:28;100932.30;;;3.18;92.20
65872;BME280;52653;50.080;21.992;2023-02-13T07:30:20;100933.05;;;3.18;92.23
65872;BME280;52653;50.080;21.992;2023-02-13T07:33:13;100930.07;;;3.21;92.00
65872;BME280;52653;50.080;21.992;2023-02-13T07:36:08;100931.77;;;3.24;92.20
65872;BME280;52653;50.080;21.992;2023-02-13T07:39:01;100931.33;;;3.26;92.10
65872;BME280;52653;50.080;21.992;2023-02-13T07:41:54;100933.70;;;3.32;91.94
65872;BME280;52653;50.080;21.992;2023-02-13T07:44:47;100935.84;;;3.33;91.83
65872;BME280;52653;50.080;21.992;2023-02-13T07:47:40;100938.88;;;3.35;91.70
65872;BME280;52653;50.080;21.992;2023-02-13T07:50:33;100937.21;;;3.36;91.74
65872;BME280;52653;50.080;21.992;2023-02-13T07:53:28;100933.27;;;3.41;91.70
65872;BME280;52653;50.080;21.992;2023-02-13T07:56:15;100933.73;;;3.46;91.57
65872;BME280;52653;50.080;21.992;2023-02-13T07:59:06;100932.02;;;3.55;91.33
65872;BME280;52653;50.080;21.992;2023-02-13T08:01:59;100931.45;;;3.64;91.16
65872;BME280;52653;50.080;21.992;2023-02-13T08:04:53;100930.33;;;3.74;90.85
65872;BME280;52653;50.080;21.992;2023-02-13T08:07:39;100926.38;;;3.82;90.56
65872;BME280;52653;50.080;21.992;2023-02-13T08:10:32;100919.07;;;3.93;90.22
65872;BME280;52653;50.080;21.992;2023-02-13T08:13:43;100922.83;;;4.02;89.80
65872;BME280;52653;50.080;21.992;2023-02-13T08:16:26;100921.45;;;4.22;89.72
65872;BME280;52653;50.080;21.992;2023-02-13T08:19:20;100920.38;;;4.36;89.09
65872;BME280;52653;50.080;21.992;2023-02-13T08:22:06;100926.04;;;4.39;88.40
65872;BME280;52653;50.080;21.992;2023-02-13T08:25:01;100923.79;;;4.39;88.12
65872;BME280;52653;50.080;21.992;2023-02-13T08:27:54;100923.14;;;4.44;88.36
65872;BME280;52653;50.080;21.992;2023-02-13T08:30:48;100917.60;;;4.52;88.13
65872;BME280;52653;50.080;21.992;2023-02-13T08:33:41;100917.65;;;4.57;87.75
65872;BME280;52653;50.080;21.992;2023-02-13T08:36:36;100919.00;;;4.64;87.10
65872;BME280;52653;50.080;21.992;2023-02-13T08:39:30;100916.09;;;4.73;87.05
65872;BME280;52653;50.080;21.992;2023-02-13T08:42:08;100916.82;;;4.82;86.67
65872;BME280;52653;50.080;21.992;2023-02-13T08:45:07;100919.17;;;4.92;86.59
65872;BME280;52653;50.080;21.992;2023-02-13T08:48:02;100919.12;;;5.03;85.89
65872;BME280;52653;50.080;21.992;2023-02-13T08:50:36;100917.55;;;5.12;85.72
65872;BME280;52653;50.080;21.992;2023-02-13T08:53:29;100918.61;;;5.12;85.03
65872;BME280;52653;50.080;21.992;2023-02-13T08:56:22;100916.21;;;5.13;85.33
65872;BME280;52653;50.080;21.992;2023-02-13T08:59:15;100916.69;;;5.12;85.10
65872;BME280;52653;50.080;21.992;2023-02-13T09:02:10;100913.88;;;5.15;85.26
65872;BME280;52653;50.080;21.992;2023-02-13T09:05:03;100916.96;;;5.19;84.78
65872;BME280;52653;50.080;21.992;2023-02-13T09:08:00;100911.45;;;5.28;84.87
65872;BME280;52653;50.080;21.992;2023-02-13T09:10:58;100914.27;;;5.38;84.47
65872;BME280;52653;50.080;21.992;2023-02-13T09:13:53;100909.70;;;5.49;84.31
65872;BME280;52653;50.080;21.992;2023-02-13T09:16:46;100907.30;;;5.54;83.52
65872;BME280;52653;50.080;21.992;2023-02-13T09:19:40;100907.30;;;5.59;83.16
65872;BME280;52653;50.080;21.992;2023-02-13T09:22:33;100905.90;;;5.63;82.99
65872;BME280;52653;50.080;21.992;2023-02-13T09:25:06;100907.15;;;5.73;82.84
65872;BME280;52653;50.080;21.992;2023-02-13T09:28:01;100905.55;;;5.81;82.82
65872;BME280;52653;50.080;21.992;2023-02-13T09:30:54;100914.91;;;5.88;82.34
65872;BME280;52653;50.080;21.992;2023-02-13T09:33:47;100911.80;;;5.89;81.87
65872;BME280;52653;50.080;21.992;2023-02-13T09:36:40;100904.18;;;5.90;81.75
65872;BME280;52653;50.080;21.992;2023-02-13T09:39:36;100904.48;;;5.98;81.28
65872;BME280;52653;50.080;21.992;2023-02-13T09:42:33;100898.27;;;5.99;81.03
65872;BME280;52653;50.080;21.992;2023-02-13T09:45:22;100896.02;;;6.04;80.63
65872;BME280;52653;50.080;21.992;2023-02-13T09:48:23;100885.84;;;6.16;81.12
65872;BME280;52653;50.080;21.992;2023-02-13T09:51:21;100885.90;;;6.22;80.33
65872;BME280;52653;50.080;21.992;2023-02-13T09:54:12;100880.34;;;6.23;80.44
65872;BME280;52653;50.080;21.992;2023-02-13T09:57:05;100872.67;;;6.32;80.35
65872;BME280;52653;50.080;21.992;2023-02-13T10:00:05;100869.98;;;6.44;80.29
65872;BME280;52653;50.080;21.992;2023-02-13T10:03:20;100879.95;;;6.56;79.57
65872;BME280;52653;50.080;21.992;2023-02-13T10:06:23;100873.17;;;6.66;79.37
65872;BME280;52653;50.080;21.992;2023-02-13T10:09:19;100870.03;;;6.71;78.32
65872;BME280;52653;50.080;21.992;2023-02-13T10:12:21;100864.91;;;6.79;78.30
65872;BME280;52653;50.080;21.992;2023-02-13T10:15:16;100863.02;;;6.85;78.23
65872;BME280;52653;50.080;21.992;2023-02-13T10:18:16;100864.63;;;6.86;77.94
65872;BME280;52653;50.080;21.992;2023-02-13T10:21:12;100860.92;;;6.85;77.70
65872;BME280;52653;50.080;21.992;2023-02-13T10:24:09;100865.70;;;6.76;77.33
65872;BME280;52653;50.080;21.992;2023-02-13T10:27:11;100861.08;;;6.79;77.86
65872;BME280;52653;50.080;21.992;2023-02-13T10:30:16;100856.28;;;6.87;78.10
65872;BME280;52653;50.080;21.992;2023-02-13T10:33:15;100855.38;;;6.91;77.48
65872;BME280;52653;50.080;21.992;2023-02-13T10:36:19;100851.37;;;6.97;77.26
65872;BME280;52653;50.080;21.992;2023-02-13T10:39:20;100849.42;;;7.06;77.46
65872;BME280;52653;50.080;21.992;2023-02-13T10:42:21;100848.84;;;7.15;77.28
65872;BME280;52653;50.080;21.992;2023-02-13T10:45:21;100843.38;;;7.13;76.56
65872;BME280;52653;50.080;21.992;2023-02-13T10:48:34;100835.34;;;7.13;76.71
65872;BME280;52653;50.080;21.992;2023-02-13T10:51:29;100831.02;;;7.14;76.74
65872;BME280;52653;50.080;21.992;2023-02-13T10:54:49;100822.66;;;7.26;76.87
65872;BME280;52653;50.080;21.992;2023-02-13T10:57:55;100818.40;;;7.34;76.04
65872;BME280;52653;50.080;21.992;2023-02-13T11:00:57;100821.14;;;7.27;75.20
65872;BME280;52653;50.080;21.992;2023-02-13T11:04:01;100824.98;;;7.33;75.67
65872;BME280;52653;50.080;21.992;2023-02-13T11:06:43;100818.13;;;7.43;75.93
65872;BME280;52653;50.080;21.992;2023-02-13T11:09:36;100815.14;;;7.53;75.53
65872;BME280;52653;50.080;21.992;2023-02-13T11:12:33;100813.86;;;7.63;75.30
65872;BME280;52653;50.080;21.992;2023-02-13T11:15:28;100818.01;;;7.67;74.89
65872;BME280;52653;50.080;21.992;2023-02-13T11:18:22;100815.77;;;7.68;74.44
65872;BME280;52653;50.080;21.992;2023-02-13T11:21:15;100816.64;;;7.68;74.07
65872;BME280;52653;50.080;21.992;2023-02-13T11:24:01;100817.69;;;7.75;74.31
65872;BME280;52653;50.080;21.992;2023-02-13T11:27:00;100811.70;;;7.84;74.47
65872;BME280;52653;50.080;21.992;2023-02-13T11:29:55;100815.81;;;8.00;74.40
65872;BME280;52653;50.080;21.992;2023-02-13T11:32:57;100819.30;;;8.00;73.12
65872;BME280;52653;50.080;21.992;2023-02-13T11:35:51;100816.20;;;8.01;73.18
65872;BME280;52653;50.080;21.992;2023-02-13T11:39:03;100810.19;;;8.05;73.35
65872;BME280;52653;50.080;21.992;2023-02-13T11:41:49;100813.21;;;8.06;73.42
65872;BME280;52653;50.080;21.992;2023-02-13T11:45:05;100807.29;;;8.01;73.06
65872;BME280;52653;50.080;21.992;2023-02-13T11:47:52;100806.02;;;7.93;72.89
65872;BME280;52653;50.080;21.992;2023-02-13T11:50:51;100802.95;;;7.96;73.08
65872;BME280;52653;50.080;21.992;2023-02-13T11:53:46;100798.80;;;8.04;72.88
65872;BME280;52653;50.080;21.992;2023-02-13T11:56:50;100801.41;;;8.10;72.60
65872;BME280;52653;50.080;21.992;2023-02-13T12:00:00;100805.36;;;8.13;71.90
65872;BME280;52653;50.080;21.992;2023-02-13T12:03:27;100800.05;;;8.17;71.86
65872;BME280;52653;50.080;21.992;2023-02-13T12:06:22;100802.23;;;8.13;71.59
65872;BME280;52653;50.080;21.992;2023-02-13T12:09:15;100799.71;;;8.12;71.68
65872;BME280;52653;50.080;21.992;2023-02-13T12:12:14;100793.37;;;8.15;71.92
65872;BME280;52653;50.080;21.992;2023-02-13T12:15:16;100791.44;;;8.09;71.52
65872;BME280;52653;50.080;21.992;2023-02-13T12:18:14;100782.35;;;8.09;71.88
65872;BME280;52653;50.080;21.992;2023-02-13T12:21:21;100784.86;;;8.12;71.73
65872;BME280;52653;50.080;21.992;2023-02-13T12:24:28;100783.50;;;8.13;71.45
65872;BME280;52653;50.080;21.992;2023-02-13T12:27:31;100771.17;;;8.10;71.15
65872;BME280;52653;50.080;21.992;2023-02-13T12:30:48;100772.80;;;8.11;71.31
65872;BME280;52653;50.080;21.992;2023-02-13T12:36:48;100757.48;;;8.26;70.51
65872;BME280;52653;50.080;21.992;2023-02-13T12:39:35;100756.00;;;8.24;70.28
65872;BME280;52653;50.080;21.992;2023-02-13T12:42:38;100753.28;;;8.20;69.86
65872;BME280;52653;50.080;21.992;2023-02-13T12:45:36;100752.59;;;8.14;70.00
65872;BME280;52653;50.080;21.992;2023-02-13T12:48:30;100757.02;;;8.09;70.26
65872;BME280;52653;50.080;21.992;2023-02-13T12:51:40;100749.30;;;8.02;70.40
65872;BME280;52653;50.080;21.992;2023-02-13T12:54:44;100748.27;;;7.84;70.33
65872;BME280;52653;50.080;21.992;2023-02-13T12:57:48;100748.65;;;7.73;70.50
65872;BME280;52653;50.080;21.992;2023-02-13T13:00:51;100749.56;;;7.61;70.50
65872;BME280;52653;50.080;21.992;2023-02-13T13:03:58;100735.89;;;7.60;70.40
65872;BME280;52653;50.080;21.992;2023-02-13T13:07:04;100736.75;;;7.60;70.33
65872;BME280;52653;50.080;21.992;2023-02-13T13:10:15;100734.69;;;7.66;71.05
65872;BME280;52653;50.080;21.992;2023-02-13T13:13:24;100737.61;;;7.72;69.95
65872;BME280;52653;50.080;21.992;2023-02-13T13:16:31;100737.88;;;7.68;69.84
65872;BME280;52653;50.080;21.992;2023-02-13T13:19:37;100739.01;;;7.53;70.36
65872;BME280;52653;50.080;21.992;2023-02-13T13:22:33;100738.92;;;7.45;71.05
65872;BME280;52653;50.080;21.992;2023-02-13T13:25:33;100746.07;;;7.32;70.94
65872;BME280;52653;50.080;21.992;2023-02-13T13:28:31;100744.02;;;7.22;71.57
65872;BME280;52653;50.080;21.992;2023-02-13T13:31:27;100738.73;;;7.09;71.99
65872;BME280;52653;50.080;21.992;2023-02-13T13:34:23;100740.14;;;6.98;72.90
65872;BME280;52653;50.080;21.992;2023-02-13T13:37:25;100744.05;;;6.79;73.67
65872;BME280;52653;50.080;21.992;2023-02-13T13:40:29;100749.67;;;6.59;74.65
65872;BME280;52653;50.080;21.992;2023-02-13T13:43:23;100743.95;;;6.44;75.13
65872;BME280;52653;50.080;21.992;2023-02-13T13:46:23;100743.66;;;6.30;75.50
65872;BME280;52653;50.080;21.992;2023-02-13T13:49:40;100742.63;;;6.15;76.01
65872;BME280;52653;50.080;21.992;2023-02-13T13:52:24;100740.59;;;6.07;76.61
65872;BME280;52653;50.080;21.992;2023-02-13T13:58:44;100732.91;;;6.07;77.24
65872;BME280;52653;50.080;21.992;2023-02-13T14:01:39;100731.27;;;6.09;77.27
65872;BME280;52653;50.080;21.992;2023-02-13T14:05:01;100727.44;;;6.14;77.26
65872;BME280;52653;50.080;21.992;2023-02-13T14:07:50;100720.95;;;6.18;77.21
65872;BME280;52653;50.080;21.992;2023-02-13T14:11:02;100719.54;;;6.18;77.43
65872;BME280;52653;50.080;21.992;2023-02-13T14:13:49;100718.02;;;6.14;77.83
65872;BME280;52653;50.080;21.992;2023-02-13T14:16:45;100716.38;;;6.07;78.42
65872;BME280;52653;50.080;21.992;2023-02-13T14:19:39;100714.01;;;6.04;78.65
65872;BME280;52653;50.080;21.992;2023-02-13T14:22:37;100712.17;;;6.01;78.93
65872;BME280;52653;50.080;21.992;2023-02-13T14:25:31;100704.73;;;5.93;79.25
65872;BME280;52653;50.080;21.992;2023-02-13T14:28:22;100713.09;;;5.84;79.77
65872;BME280;52653;50.080;21.992;2023-02-13T14:31:22;100714.08;;;5.77;80.08
65872;BME280;52653;50.080;21.992;2023-02-13T14:34:30;100710.03;;;5.71;80.27
65872;BME280;52653;50.080;21.992;2023-02-13T14:37:30;100709.06;;;5.63;80.56
65872;BME280;52653;50.080;21.992;2023-02-13T14:43:46;100696.55;;;5.45;81.66
65872;BME280;52653;50.080;21.992;2023-02-13T14:46:41;100694.11;;;5.40;81.98
65872;BME280;52653;50.080;21.992;2023-02-13T14:49:41;100696.67;;;5.39;82.20
65872;BME280;52653;50.080;21.992;2023-02-13T14:52:37;100693.95;;;5.41;82.24
65872;BME280;52653;50.080;21.992;2023-02-13T14:55:37;100700.02;;;5.45;82.09
65872;BME280;52653;50.080;21.992;2023-02-13T14:58:34;100695.60;;;5.47;82.28
65872;BME280;52653;50.080;21.992;2023-02-13T15:01:32;100687.30;;;5.49;82.24
65872;BME280;52653;50.080;21.992;2023-02-13T15:04:25;100683.21;;;5.51;82.27
65872;BME280;52653;50.080;21.992;2023-02-13T15:07:23;100683.47;;;5.54;82.11
65872;BME280;52653;50.080;21.992;2023-02-13T15:10:03;100689.90;;;5.49;82.23
65872;BME280;52653;50.080;21.992;2023-02-13T15:12:41;100673.57;;;5.40;82.48
65872;BME280;52653;50.080;21.992;2023-02-13T15:15:26;100673.68;;;5.33;82.80
65872;BME280;52653;50.080;21.992;2023-02-13T15:18:21;100670.52;;;5.28;83.21
65872;BME280;52653;50.080;21.992;2023-02-13T15:21:08;100669.63;;;5.22;83.29
65872;BME280;52653;50.080;21.992;2023-02-13T15:24:04;100671.67;;;5.17;83.47
65872;BME280;52653;50.080;21.992;2023-02-13T15:27:01;100665.34;;;5.15;83.55
65872;BME280;52653;50.080;21.992;2023-02-13T15:29:58;100660.64;;;5.15;83.57
65872;BME280;52653;50.080;21.992;2023-02-13T15:32:57;100662.44;;;5.12;83.52
65872;BME280;52653;50.080;21.992;2023-02-13T15:35:36;100656.71;;;5.08;83.67
65872;BME280;52653;50.080;21.992;2023-02-13T15:38:24;100656.30;;;5.06;83.65